Marysvale, Utah
Current Conditions -  °F | °C
As of 4:52 PM on Saturday 25 Oct 2014 (Local Time) from KMLF Reporting Station
Clear Clear  
Wind Chill: 74°   Ceiling: Unl
Heat Index: 74°   Visibility: 10mi
Dew Point: 40°   Wind: 36mph
Humidity: 29%   Direction: 220°SW
Pressure: 30.04"   Gusts: 48mph
Location:  38.45°N, 112.23°W
Report Text: KMLF 252252Z AUTO 22031G42KT 10SM CLR 23/04 A3004 RMK AO2 PK WND 21042/2246 SLP132 T02330044 TSNO
Loading
Personal Weather Stations






























Interactive Weather Map
Tropical Storm Tracking
New forecast layout! Learn more

10-Day Weather Forecast

Advertisements
Track Severe Weather on mobile